Time;durP1;ratioP1;P1;durP2;ratioP2;P2;SDS_P1;SDS_P2;PMS_P1;PMS_P2;Temp;Humidity;BMP_temperature;BMP_pressure;BME280_temperature;BME280_humidity;BME280_pressure;Samples;Min_cycle;Max_cycle;Signal;HPM_P1;HPM_P2
2023/07/24 00:01:53;;;;;;;;;;;19.30;87.70;;;;;;5009301;28;19913;-89
2023/07/24 00:04:19;;;;;;;;;;;19.30;87.40;;;;;;4998627;28;20014;-89
2023/07/24 00:06:44;;;;;;;;;;;19.30;87.30;;;;;;5010020;28;20293;-89
2023/07/24 00:09:10;;;;;;;;;;;19.20;87.60;;;;;;5004567;27;20289;-89
2023/07/24 00:11:35;;;;;;;;;;;19.20;87.60;;;;;;5002189;28;19960;-89
2023/07/24 00:14:00;;;;;;;;;;;19.20;87.80;;;;;;4997792;28;19913;-90
2023/07/24 00:16:26;;;;;;;;;;;19.20;87.70;;;;;;5013700;28;19913;-89
2023/07/24 00:18:51;;;;;;;;;;;19.20;87.60;;;;;;5006866;28;19913;-89
2023/07/24 00:21:17;;;;;;;;;;;19.10;87.70;;;;;;5008630;27;20391;-89
2023/07/24 00:23:42;;;;;;;;;;;19.10;87.90;;;;;;5011651;28;20297;-90
2023/07/24 00:26:08;;;;;;;;;;;19.10;87.70;;;;;;5003071;28;19917;-89
2023/07/24 00:28:33;;;;;;;;;;;19.10;87.70;;;;;;5013497;28;19914;-89
2023/07/24 00:33:26;;;;;;;;;;;19.00;87.90;;;;;;5054289;28;19934;-85
2023/07/24 00:35:57;;;;;;;;;;;19.00;88.00;;;;;;5032441;28;19928;-83
2023/07/24 00:38:22;;;;;;;;;;;19.10;88.10;;;;;;5034915;28;20288;-84
2023/07/24 00:40:48;;;;;;;;;;;19.10;87.70;;;;;;5036547;28;19916;-85
2023/07/24 00:43:13;;;;;;;;;;;19.00;88.00;;;;;;5055680;28;19980;-84
2023/07/24 00:45:39;;;;;;;;;;;19.00;88.00;;;;;;5051709;28;19924;-85
2023/07/24 00:48:05;;;;;;;;;;;19.20;87.90;;;;;;5039135;28;19916;-85
2023/07/24 00:50:30;;;;;;;;;;;19.20;88.00;;;;;;5040781;28;19952;-86
2023/07/24 00:52:56;;;;;;;;;;;19.20;87.80;;;;;;5036835;28;19919;-85
2023/07/24 00:55:21;;;;;;;;;;;19.20;87.50;;;;;;5037586;28;19929;-84
2023/07/24 00:57:47;;;;;;;;;;;19.30;87.10;;;;;;5059698;28;19951;-86
2023/07/24 01:00:12;;;;;;;;;;;19.30;87.00;;;;;;5038834;28;19967;-86
2023/07/24 01:02:38;;;;;;;;;;;19.40;87.00;;;;;;5037131;28;19959;-85
2023/07/24 01:05:04;;;;;;;;;;;19.50;87.00;;;;;;5041167;28;19924;-85
2023/07/24 01:07:30;;;;;;;;;;;19.40;86.70;;;;;;5038483;28;20354;-85
2023/07/24 01:09:55;;;;;;;;;;;19.40;86.80;;;;;;5040601;28;20372;-85
2023/07/24 01:12:31;;;;;;;;;;;19.40;86.90;;;;;;5052968;28;19920;-85
2023/07/24 01:15:17;;;;;;;;;;;19.40;86.90;;;;;;5053518;28;19913;-85
2023/07/24 01:20:12;;;;;;;;;;;19.30;87.20;;;;;;5063016;28;19929;-80
2023/07/24 01:23:02;;;;;;;;;;;19.40;86.80;;;;;;5060096;28;19920;-82
2023/07/24 01:25:31;;;;;;;;;;;19.30;86.80;;;;;;5038273;28;19917;-82
2023/07/24 01:27:57;;;;;;;;;;;19.40;86.70;;;;;;5030865;28;19944;-82
2023/07/24 01:30:22;;;;;;;;;;;19.30;86.70;;;;;;5038559;28;20305;-82
2023/07/24 01:32:48;;;;;;;;;;;19.30;87.00;;;;;;5039142;28;19980;-80
2023/07/24 01:35:14;;;;;;;;;;;19.30;86.60;;;;;;5037495;28;19912;-81
2023/07/24 01:37:40;;;;;;;;;;;19.20;86.90;;;;;;5040769;28;19913;-82
2023/07/24 01:40:09;;;;;;;;;;;19.10;86.80;;;;;;5039211;28;19912;-80
2023/07/24 01:42:35;;;;;;;;;;;19.00;87.30;;;;;;5037891;28;19923;-82
2023/07/24 01:45:01;;;;;;;;;;;19.00;87.80;;;;;;5033060;28;20290;-82
2023/07/24 01:47:27;;;;;;;;;;;18.90;87.90;;;;;;5030199;28;19915;-82
2023/07/24 01:49:52;;;;;;;;;;;19.00;88.00;;;;;;5035209;28;19917;-80
2023/07/24 01:52:18;;;;;;;;;;;19.00;87.50;;;;;;5056414;28;19920;-79
2023/07/24 01:54:43;;;;;;;;;;;19.00;87.20;;;;;;5036058;28;19913;-82
2023/07/24 01:57:09;;;;;;;;;;;18.80;88.00;;;;;;5039551;28;19964;-80
2023/07/24 01:59:34;;;;;;;;;;;18.80;88.30;;;;;;5048981;28;19948;-78
2023/07/24 02:02:00;;;;;;;;;;;18.80;88.20;;;;;;5040122;28;19980;-78
2023/07/24 02:04:25;;;;;;;;;;;18.70;88.20;;;;;;5054932;28;20006;-81
2023/07/24 02:06:51;;;;;;;;;;;18.70;88.60;;;;;;5034690;28;19952;-80
2023/07/24 02:09:18;;;;;;;;;;;18.60;88.90;;;;;;5056351;28;20390;-80
2023/07/24 02:11:43;;;;;;;;;;;18.50;89.10;;;;;;5035051;28;21174;-81
2023/07/24 02:14:09;;;;;;;;;;;18.50;89.30;;;;;;5034257;28;19941;-82
2023/07/24 02:16:35;;;;;;;;;;;18.50;89.10;;;;;;5054971;28;20315;-80
2023/07/24 02:19:00;;;;;;;;;;;18.50;89.10;;;;;;5056284;28;20368;-80
2023/07/24 02:21:26;;;;;;;;;;;18.50;89.00;;;;;;5044169;28;19913;-78
2023/07/24 02:23:51;;;;;;;;;;;18.50;88.90;;;;;;5035973;28;19909;-81
2023/07/24 02:26:17;;;;;;;;;;;18.50;89.20;;;;;;5053243;28;19951;-81
2023/07/24 02:28:42;;;;;;;;;;;18.50;88.90;;;;;;5053262;28;20011;-79
2023/07/24 02:31:08;;;;;;;;;;;18.50;88.70;;;;;;5039486;28;19913;-81
2023/07/24 02:33:33;;;;;;;;;;;18.50;89.10;;;;;;5039105;28;19917;-80
2023/07/24 02:36:00;;;;;;;;;;;18.50;89.30;;;;;;5054306;28;19912;-81
2023/07/24 02:38:25;;;;;;;;;;;18.50;89.50;;;;;;5058007;28;19935;-81
2023/07/24 02:40:51;;;;;;;;;;;18.50;89.30;;;;;;5058990;28;19909;-81
2023/07/24 02:43:16;;;;;;;;;;;18.50;89.30;;;;;;5057403;28;19913;-81
2023/07/24 02:45:42;;;;;;;;;;;18.50;89.10;;;;;;5050643;28;19920;-80
2023/07/24 02:48:07;;;;;;;;;;;18.40;89.20;;;;;;5037216;28;19967;-80
2023/07/24 02:50:33;;;;;;;;;;;18.50;89.30;;;;;;5035093;28;20603;-78
2023/07/24 02:52:59;;;;;;;;;;;18.50;89.10;;;;;;5029925;28;19917;-79
2023/07/24 02:55:24;;;;;;;;;;;18.60;88.70;;;;;;5034908;28;19924;-81
2023/07/24 02:57:50;;;;;;;;;;;18.60;88.90;;;;;;5110601;22;19913;-78
2023/07/24 03:02:46;;;;;;;;;;;18.70;88.70;;;;;;5068641;28;19928;-81
2023/07/24 03:05:12;;;;;;;;;;;18.80;88.30;;;;;;5069447;28;19920;-79
2023/07/24 03:07:37;;;;;;;;;;;18.80;88.50;;;;;;5073620;28;19935;-80
2023/07/24 03:10:03;;;;;;;;;;;18.70;88.90;;;;;;5068986;28;20385;-79
2023/07/24 03:12:29;;;;;;;;;;;18.70;89.10;;;;;;5069686;28;19920;-78
2023/07/24 03:14:54;;;;;;;;;;;18.70;89.10;;;;;;5075583;28;19909;-81
2023/07/24 03:17:20;;;;;;;;;;;18.70;89.00;;;;;;5078984;28;20447;-80
2023/07/24 03:19:45;;;;;;;;;;;18.70;89.30;;;;;;5074282;28;19920;-80
2023/07/24 03:22:11;;;;;;;;;;;18.60;89.50;;;;;;5076755;28;19966;-80
2023/07/24 03:24:36;;;;;;;;;;;18.70;89.40;;;;;;5077255;28;20298;-79
2023/07/24 03:27:02;;;;;;;;;;;18.70;89.60;;;;;;5088463;28;19916;-79
2023/07/24 03:29:27;;;;;;;;;;;18.70;89.70;;;;;;5075264;28;19931;-78
2023/07/24 03:31:53;;;;;;;;;;;18.70;89.40;;;;;;5075121;28;19916;-79
2023/07/24 03:34:18;;;;;;;;;;;18.80;89.20;;;;;;5074991;28;19980;-81
2023/07/24 03:36:44;;;;;;;;;;;18.90;88.90;;;;;;5073715;28;19999;-77
2023/07/24 03:39:09;;;;;;;;;;;18.90;88.60;;;;;;5076585;28;19912;-79
2023/07/24 03:41:35;;;;;;;;;;;18.90;88.70;;;;;;5075684;28;20637;-80
2023/07/24 03:44:00;;;;;;;;;;;18.80;88.90;;;;;;5073845;28;21799;-79
2023/07/24 03:46:26;;;;;;;;;;;18.80;89.20;;;;;;5089205;28;19961;-80
2023/07/24 03:48:52;;;;;;;;;;;18.80;88.90;;;;;;5070852;28;19913;-80
2023/07/24 03:51:17;;;;;;;;;;;18.80;89.00;;;;;;5075627;28;20464;-80
2023/07/24 03:53:43;;;;;;;;;;;18.80;88.90;;;;;;5070273;28;19912;-79
2023/07/24 03:56:08;;;;;;;;;;;18.80;88.80;;;;;;5074842;28;19909;-80
2023/07/24 03:58:34;;;;;;;;;;;18.90;88.80;;;;;;5066993;28;19912;-77
2023/07/24 04:00:59;;;;;;;;;;;18.90;88.60;;;;;;5074878;28;19913;-80
2023/07/24 04:03:25;;;;;;;;;;;18.90;88.60;;;;;;5071287;28;20325;-80
2023/07/24 04:05:50;;;;;;;;;;;18.90;88.70;;;;;;5076283;28;20395;-78
2023/07/24 04:08:16;;;;;;;;;;;18.90;88.90;;;;;;5074906;28;19913;-80
2023/07/24 04:10:41;;;;;;;;;;;18.90;89.00;;;;;;5068974;28;19912;-79
2023/07/24 04:13:07;;;;;;;;;;;18.90;89.30;;;;;;5064706;28;19927;-78
2023/07/24 04:15:32;;;;;;;;;;;18.80;88.90;;;;;;5069006;28;19920;-78
2023/07/24 04:17:57;;;;;;;;;;;18.80;89.00;;;;;;5068442;28;20457;-79
2023/07/24 04:20:23;;;;;;;;;;;18.80;89.20;;;;;;5072304;28;19909;-80
2023/07/24 04:22:48;;;;;;;;;;;18.80;89.30;;;;;;5073508;28;20023;-79
2023/07/24 04:25:15;;;;;;;;;;;18.80;89.20;;;;;;5080987;28;20352;-79
2023/07/24 04:27:41;;;;;;;;;;;18.90;88.90;;;;;;5072737;28;19913;-79
2023/07/24 04:30:06;;;;;;;;;;;18.90;88.80;;;;;;5076553;28;19912;-78
2023/07/24 04:32:32;;;;;;;;;;;18.90;88.70;;;;;;5083681;28;19912;-80
2023/07/24 04:34:57;;;;;;;;;;;18.90;88.70;;;;;;5071950;28;19927;-80
2023/07/24 04:37:23;;;;;;;;;;;18.90;88.60;;;;;;5071473;28;20002;-78
2023/07/24 04:39:49;;;;;;;;;;;19.00;88.90;;;;;;5072638;28;20279;-81
2023/07/24 04:42:14;;;;;;;;;;;18.90;88.60;;;;;;5071943;28;19919;-80
2023/07/24 04:44:40;;;;;;;;;;;19.00;88.20;;;;;;5070933;28;19920;-81
2023/07/24 04:47:05;;;;;;;;;;;18.90;88.40;;;;;;5072618;28;19931;-82
2023/07/24 04:49:32;;;;;;;;;;;19.00;88.40;;;;;;5076386;28;19920;-82
2023/07/24 04:51:58;;;;;;;;;;;18.90;88.30;;;;;;5073075;28;20413;-84
2023/07/24 04:54:24;;;;;;;;;;;18.90;88.40;;;;;;5070062;28;19916;-84
2023/07/24 04:56:49;;;;;;;;;;;18.90;88.40;;;;;;5075549;28;20287;-84
2023/07/24 04:59:15;;;;;;;;;;;18.90;88.20;;;;;;5076947;28;19919;-84
2023/07/24 05:01:40;;;;;;;;;;;18.90;88.00;;;;;;5076364;28;19917;-83
2023/07/24 05:04:05;;;;;;;;;;;18.90;88.50;;;;;;5086037;28;19924;-84
2023/07/24 05:06:31;;;;;;;;;;;19.00;88.30;;;;;;5073823;28;20011;-83
2023/07/24 05:08:56;;;;;;;;;;;18.90;88.50;;;;;;5073519;28;19912;-84
2023/07/24 05:11:22;;;;;;;;;;;19.00;88.10;;;;;;5066143;28;19912;-85
2023/07/24 05:13:47;;;;;;;;;;;18.90;88.90;;;;;;5068393;28;19942;-82
2023/07/24 05:16:13;;;;;;;;;;;18.90;88.90;;;;;;5068009;28;19938;-84
2023/07/24 05:18:38;;;;;;;;;;;19.10;88.60;;;;;;5071048;28;19916;-83
2023/07/24 05:21:04;;;;;;;;;;;19.00;89.00;;;;;;5075051;28;19987;-83
2023/07/24 05:23:29;;;;;;;;;;;18.90;89.10;;;;;;5070078;28;20360;-83
2023/07/24 05:25:58;;;;;;;;;;;18.90;89.00;;;;;;5062516;28;19927;-85
2023/07/24 05:28:25;;;;;;;;;;;19.00;88.70;;;;;;5066528;28;19975;-83
2023/07/24 05:30:51;;;;;;;;;;;19.00;88.50;;;;;;5071213;28;19912;-84
2023/07/24 05:33:16;;;;;;;;;;;19.10;88.50;;;;;;5074431;28;19919;-84
2023/07/24 05:35:43;;;;;;;;;;;19.10;88.30;;;;;;5071581;28;19948;-83
2023/07/24 05:38:08;;;;;;;;;;;19.10;88.50;;;;;;5067675;28;20450;-82
2023/07/24 05:40:34;;;;;;;;;;;19.10;88.20;;;;;;5067056;28;20019;-83
2023/07/24 05:42:59;;;;;;;;;;;19.10;88.40;;;;;;5062554;28;19968;-84
2023/07/24 05:45:26;;;;;;;;;;;19.00;88.40;;;;;;5070761;28;19925;-83
2023/07/24 05:47:51;;;;;;;;;;;19.00;88.40;;;;;;5066568;28;19916;-83
2023/07/24 05:50:17;;;;;;;;;;;19.00;88.40;;;;;;5067967;28;19919;-84
2023/07/24 05:52:42;;;;;;;;;;;19.00;88.10;;;;;;5062562;28;19974;-84
2023/07/24 05:55:08;;;;;;;;;;;19.00;88.30;;;;;;5062658;28;19999;-81
2023/07/24 05:57:34;;;;;;;;;;;18.90;88.50;;;;;;5070184;28;20310;-83
2023/07/24 05:59:59;;;;;;;;;;;19.00;88.80;;;;;;5060583;28;19962;-83
2023/07/24 06:02:25;;;;;;;;;;;19.10;88.80;;;;;;5063402;28;19959;-82
2023/07/24 06:04:50;;;;;;;;;;;19.10;88.50;;;;;;5067121;28;19917;-83
2023/07/24 06:07:15;;;;;;;;;;;19.20;88.30;;;;;;5070044;28;20021;-84
2023/07/24 06:09:41;;;;;;;;;;;19.20;88.20;;;;;;5082089;28;19932;-84
2023/07/24 06:12:07;;;;;;;;;;;19.40;87.90;;;;;;5071632;28;19908;-82
2023/07/24 06:14:32;;;;;;;;;;;19.50;87.40;;;;;;5064957;28;19917;-83
2023/07/24 06:16:58;;;;;;;;;;;19.50;87.50;;;;;;5067524;28;19920;-83
2023/07/24 06:19:23;;;;;;;;;;;19.40;87.00;;;;;;5072206;28;19916;-84
2023/07/24 06:21:49;;;;;;;;;;;19.40;86.80;;;;;;5065210;28;19920;-83
2023/07/24 06:24:14;;;;;;;;;;;19.40;87.20;;;;;;5075176;28;19913;-83
2023/07/24 06:26:40;;;;;;;;;;;19.30;86.90;;;;;;5067641;28;19940;-84
2023/07/24 06:29:07;;;;;;;;;;;19.40;86.90;;;;;;5068666;28;19958;-85
2023/07/24 06:31:33;;;;;;;;;;;19.50;87.00;;;;;;5065213;28;19921;-82
2023/07/24 06:33:58;;;;;;;;;;;19.40;87.00;;;;;;5072456;28;19916;-84
2023/07/24 06:36:24;;;;;;;;;;;19.30;87.10;;;;;;5074898;28;19912;-83
2023/07/24 06:38:49;;;;;;;;;;;19.30;87.40;;;;;;5074783;28;19917;-84
2023/07/24 06:41:19;;;;;;;;;;;19.30;87.60;;;;;;5070160;28;19913;-85
2023/07/24 06:43:45;;;;;;;;;;;19.40;88.00;;;;;;5066751;28;20382;-84
2023/07/24 06:46:10;;;;;;;;;;;19.50;87.80;;;;;;5068432;28;19917;-84
2023/07/24 06:48:36;;;;;;;;;;;19.60;87.50;;;;;;5070636;28;19916;-83
2023/07/24 06:51:01;;;;;;;;;;;19.60;87.50;;;;;;5081609;28;19931;-84
2023/07/24 06:53:27;;;;;;;;;;;19.60;87.00;;;;;;5085915;28;19915;-85
2023/07/24 06:55:52;;;;;;;;;;;19.70;87.10;;;;;;5077956;28;19916;-85
2023/07/24 06:58:18;;;;;;;;;;;19.90;86.80;;;;;;5079371;28;19915;-84
2023/07/24 07:00:43;;;;;;;;;;;20.00;86.10;;;;;;5082233;28;19991;-85
2023/07/24 07:03:09;;;;;;;;;;;20.10;85.60;;;;;;5081980;28;20397;-83
2023/07/24 07:05:34;;;;;;;;;;;20.10;85.50;;;;;;5090460;28;19935;-78
2023/07/24 07:07:59;;;;;;;;;;;20.10;85.20;;;;;;5074764;28;19912;-77
2023/07/24 07:10:25;;;;;;;;;;;20.10;85.00;;;;;;5073374;28;20294;-78
2023/07/24 07:12:50;;;;;;;;;;;20.20;84.20;;;;;;5095753;28;20186;-81
2023/07/24 07:15:16;;;;;;;;;;;20.20;84.40;;;;;;5071521;28;19912;-82
2023/07/24 07:17:41;;;;;;;;;;;20.30;84.20;;;;;;5075269;28;19916;-80
2023/07/24 07:20:07;;;;;;;;;;;20.30;83.30;;;;;;5073116;28;20447;-80
2023/07/24 07:22:32;;;;;;;;;;;20.40;83.30;;;;;;5097687;28;19912;-83
2023/07/24 07:24:58;;;;;;;;;;;20.50;83.10;;;;;;5077998;28;20005;-86
2023/07/24 07:27:24;;;;;;;;;;;20.40;83.00;;;;;;5072035;28;19919;-80
2023/07/24 07:29:49;;;;;;;;;;;20.30;82.80;;;;;;5066254;28;19915;-80
2023/07/24 07:32:15;;;;;;;;;;;20.20;82.90;;;;;;5099507;28;20502;-80
2023/07/24 07:34:40;;;;;;;;;;;20.10;83.10;;;;;;5076198;28;19934;-81
2023/07/24 07:37:06;;;;;;;;;;;20.10;83.10;;;;;;5091865;28;19921;-81
2023/07/24 07:39:32;;;;;;;;;;;20.20;83.20;;;;;;5078988;28;19951;-81
2023/07/24 07:41:59;;;;;;;;;;;20.10;83.30;;;;;;5075497;28;21357;-81
2023/07/24 07:44:25;;;;;;;;;;;20.10;82.50;;;;;;5068027;28;20079;-81
2023/07/24 07:46:50;;;;;;;;;;;20.10;82.60;;;;;;5069040;28;19915;-82
2023/07/24 07:49:16;;;;;;;;;;;20.10;82.90;;;;;;5068500;28;19916;-81
2023/07/24 07:51:41;;;;;;;;;;;20.10;82.90;;;;;;5090313;28;20406;-81
2023/07/24 07:54:06;;;;;;;;;;;20.10;83.00;;;;;;5091512;28;19948;-83
2023/07/24 07:56:32;;;;;;;;;;;20.00;83.00;;;;;;5091004;28;20337;-82
2023/07/24 07:58:57;;;;;;;;;;;19.90;83.20;;;;;;5072709;28;20817;-81
2023/07/24 08:01:23;;;;;;;;;;;19.80;83.50;;;;;;5090146;28;19923;-81
2023/07/24 08:03:48;;;;;;;;;;;19.80;83.60;;;;;;5075344;28;19923;-81
2023/07/24 08:06:14;;;;;;;;;;;19.70;83.90;;;;;;5073986;28;19923;-81
2023/07/24 08:08:39;;;;;;;;;;;19.80;83.70;;;;;;5071882;28;19967;-83
2023/07/24 08:11:06;;;;;;;;;;;19.80;83.80;;;;;;5089666;28;19920;-81
2023/07/24 08:13:31;;;;;;;;;;;19.80;83.70;;;;;;5077517;28;19936;-81
2023/07/24 08:15:57;;;;;;;;;;;19.90;83.60;;;;;;5071095;28;19999;-83
2023/07/24 08:18:22;;;;;;;;;;;20.00;83.40;;;;;;5076848;28;19912;-81
2023/07/24 08:20:48;;;;;;;;;;;20.10;82.70;;;;;;5087767;28;19918;-82
2023/07/24 08:23:13;;;;;;;;;;;20.20;82.40;;;;;;5074928;28;19959;-81
2023/07/24 08:25:39;;;;;;;;;;;20.30;82.50;;;;;;5070472;28;19916;-79
2023/07/24 08:28:04;;;;;;;;;;;20.40;82.00;;;;;;5077107;28;20378;-81
2023/07/24 08:30:31;;;;;;;;;;;20.60;81.60;;;;;;5070132;28;21294;-80
2023/07/24 08:32:57;;;;;;;;;;;20.60;80.80;;;;;;5090524;28;19916;-81
2023/07/24 08:35:23;;;;;;;;;;;20.70;80.80;;;;;;5071112;28;20011;-81
2023/07/24 08:37:48;;;;;;;;;;;20.80;80.10;;;;;;5071346;28;20445;-81
2023/07/24 08:40:15;;;;;;;;;;;20.80;78.60;;;;;;5092800;28;19919;-81
2023/07/24 08:42:42;;;;;;;;;;;20.80;79.20;;;;;;5090989;28;19912;-81
2023/07/24 08:45:12;;;;;;;;;;;21.00;78.80;;;;;;5075563;28;19920;-82
2023/07/24 08:47:38;;;;;;;;;;;21.00;78.90;;;;;;5075685;28;19999;-82
2023/07/24 08:50:03;;;;;;;;;;;20.90;77.60;;;;;;5077353;28;19958;-81
2023/07/24 08:52:30;;;;;;;;;;;20.90;78.70;;;;;;5096134;28;19912;-82
2023/07/24 08:54:56;;;;;;;;;;;21.00;78.00;;;;;;5093070;28;19912;-81
2023/07/24 08:57:21;;;;;;;;;;;21.10;77.30;;;;;;5076493;28;19977;-81
2023/07/24 08:59:47;;;;;;;;;;;21.00;77.70;;;;;;5079749;28;19909;-83
2023/07/24 09:02:13;;;;;;;;;;;20.90;77.60;;;;;;5091966;28;19941;-81
2023/07/24 09:04:38;;;;;;;;;;;20.80;77.90;;;;;;5097699;28;20359;-83
2023/07/24 09:07:04;;;;;;;;;;;20.60;77.60;;;;;;5077897;28;20394;-81
2023/07/24 09:09:31;;;;;;;;;;;20.60;78.50;;;;;;5098270;28;19973;-82
2023/07/24 09:11:58;;;;;;;;;;;20.60;78.60;;;;;;5078343;28;19943;-83
2023/07/24 09:14:24;;;;;;;;;;;20.50;79.00;;;;;;5044676;22;20011;-84
2023/07/24 09:16:52;;;;;;;;;;;20.50;79.00;;;;;;4969976;28;19914;-84
2023/07/24 09:19:21;;;;;;;;;;;20.50;78.70;;;;;;4974228;28;19977;-84
2023/07/24 09:21:46;;;;;;;;;;;20.50;79.50;;;;;;4974595;28;19914;-84
2023/07/24 09:24:13;;;;;;;;;;;20.60;80.10;;;;;;4980994;28;19917;-84
2023/07/24 09:26:52;;;;;;;;;;;20.70;80.10;;;;;;4980036;28;20312;-84
2023/07/24 09:29:18;;;;;;;;;;;20.80;79.10;;;;;;4979118;28;19915;-85
2023/07/24 09:31:45;;;;;;;;;;;20.90;79.10;;;;;;4973568;28;19934;-85
2023/07/24 09:34:15;;;;;;;;;;;21.00;78.10;;;;;;4966306;28;19914;-87
2023/07/24 09:36:40;;;;;;;;;;;21.00;78.30;;;;;;4951014;28;20365;-86
2023/07/24 09:39:10;;;;;;;;;;;21.00;78.20;;;;;;4973561;28;19915;-87
2023/07/24 09:41:36;;;;;;;;;;;21.10;77.70;;;;;;4958436;28;20011;-86
2023/07/24 09:44:01;;;;;;;;;;;21.30;78.00;;;;;;4955678;28;19919;-86
2023/07/24 09:46:28;;;;;;;;;;;21.30;77.70;;;;;;4969251;28;19926;-87
2023/07/24 09:48:54;;;;;;;;;;;21.30;77.10;;;;;;4973028;28;19914;-86
2023/07/24 09:51:20;;;;;;;;;;;21.10;77.10;;;;;;4973342;28;19921;-86
2023/07/24 09:53:56;;;;;;;;;;;21.00;77.60;;;;;;4988293;28;19898;-86
2023/07/24 09:56:22;;;;;;;;;;;20.80;78.10;;;;;;4975490;28;19985;-86
2023/07/24 09:58:49;;;;;;;;;;;20.70;79.10;;;;;;4991707;28;19906;-85
2023/07/24 10:01:15;;;;;;;;;;;20.70;79.30;;;;;;4975455;28;20063;-84
2023/07/24 10:03:48;;;;;;;;;;;20.90;79.60;;;;;;4987033;28;19938;-84
2023/07/24 10:06:14;;;;;;;;;;;20.80;78.80;;;;;;4988399;28;19914;-83
2023/07/24 10:08:40;;;;;;;;;;;20.80;78.20;;;;;;4981866;28;19920;-84
2023/07/24 10:11:07;;;;;;;;;;;20.80;78.70;;;;;;4976664;28;20440;-84
2023/07/24 10:13:36;;;;;;;;;;;20.70;80.60;;;;;;4975365;28;19941;-82
2023/07/24 10:16:03;;;;;;;;;;;20.60;81.50;;;;;;4974910;28;19925;-82
2023/07/24 10:18:29;;;;;;;;;;;20.60;82.30;;;;;;4974336;28;20078;-81
2023/07/24 10:21:02;;;;;;;;;;;20.60;82.30;;;;;;4974883;28;19914;-82
2023/07/24 10:23:27;;;;;;;;;;;20.50;82.10;;;;;;4959577;28;19914;-82
2023/07/24 10:25:53;;;;;;;;;;;20.50;82.40;;;;;;4950837;28;19919;-82
2023/07/24 10:28:18;;;;;;;;;;;20.50;83.50;;;;;;4967473;28;20365;-83
2023/07/24 10:30:44;;;;;;;;;;;20.60;83.80;;;;;;4967681;28;19926;-82
2023/07/24 10:33:11;;;;;;;;;;;20.60;83.30;;;;;;4953828;28;19940;-83
2023/07/24 10:35:37;;;;;;;;;;;20.60;83.20;;;;;;4961885;28;20385;-82
2023/07/24 10:38:02;;;;;;;;;;;20.70;82.40;;;;;;4968250;28;19921;-83
2023/07/24 10:40:28;;;;;;;;;;;20.70;83.40;;;;;;4951057;28;20316;-83
2023/07/24 10:43:00;;;;;;;;;;;20.60;83.50;;;;;;4953481;28;20013;-82
2023/07/24 10:45:26;;;;;;;;;;;20.70;83.70;;;;;;4967631;28;19922;-83
2023/07/24 10:47:53;;;;;;;;;;;20.90;82.70;;;;;;4971981;28;19918;-83
2023/07/24 10:50:19;;;;;;;;;;;20.80;83.10;;;;;;4972086;28;20356;-82
2023/07/24 10:52:44;;;;;;;;;;;20.90;83.70;;;;;;4970522;28;19933;-83
2023/07/24 10:55:09;;;;;;;;;;;21.00;82.70;;;;;;4970250;28;19914;-82
2023/07/24 10:57:35;;;;;;;;;;;21.10;82.20;;;;;;4967653;28;20471;-82
2023/07/24 11:00:00;;;;;;;;;;;21.30;81.30;;;;;;4972239;28;19918;-82
2023/07/24 11:02:26;;;;;;;;;;;21.50;81.70;;;;;;4963291;28;19918;-84
2023/07/24 11:04:51;;;;;;;;;;;21.70;80.40;;;;;;4973444;28;20125;-84
2023/07/24 11:07:17;;;;;;;;;;;21.80;79.90;;;;;;4970061;28;19929;-81
2023/07/24 11:09:43;;;;;;;;;;;21.90;80.20;;;;;;4968707;28;19914;-82
2023/07/24 11:12:10;;;;;;;;;;;21.90;80.20;;;;;;4969254;28;19910;-81
2023/07/24 11:14:35;;;;;;;;;;;22.00;79.90;;;;;;4967268;28;20379;-81
2023/07/24 11:17:01;;;;;;;;;;;22.10;79.80;;;;;;4965820;28;19918;-83
2023/07/24 11:19:26;;;;;;;;;;;22.10;79.60;;;;;;4968719;28;19969;-82
2023/07/24 11:21:52;;;;;;;;;;;21.90;78.50;;;;;;4965816;28;19922;-82
2023/07/24 11:24:17;;;;;;;;;;;21.60;79.10;;;;;;4965669;28;19921;-83
2023/07/24 11:26:43;;;;;;;;;;;21.50;80.10;;;;;;4963954;28;19987;-84
2023/07/24 11:29:11;;;;;;;;;;;21.40;81.40;;;;;;4989152;28;19914;-84
2023/07/24 11:31:38;;;;;;;;;;;21.50;81.80;;;;;;4968043;28;20068;-86
2023/07/24 11:34:05;;;;;;;;;;;21.50;80.80;;;;;;4948939;28;19936;-84
2023/07/24 11:36:30;;;;;;;;;;;21.30;81.10;;;;;;4967014;28;19927;-85
2023/07/24 11:38:56;;;;;;;;;;;21.50;80.50;;;;;;4967655;28;19918;-84
2023/07/24 11:41:21;;;;;;;;;;;21.30;81.10;;;;;;4951601;28;19933;-84
2023/07/24 11:43:48;;;;;;;;;;;21.30;81.20;;;;;;4965232;28;20557;-84
2023/07/24 11:46:22;;;;;;;;;;;21.10;81.50;;;;;;4969813;28;20452;-85
2023/07/24 11:48:48;;;;;;;;;;;21.10;81.70;;;;;;4972209;28;19910;-86
2023/07/24 11:51:13;;;;;;;;;;;20.90;82.10;;;;;;4963800;28;19918;-87
2023/07/24 11:53:39;;;;;;;;;;;20.70;81.80;;;;;;4973082;28;19925;-87
2023/07/24 11:56:12;;;;;;;;;;;20.70;82.50;;;;;;4968599;28;20281;-87
2023/07/24 11:58:38;;;;;;;;;;;20.60;83.10;;;;;;4967560;28;19921;-86
2023/07/24 12:01:03;;;;;;;;;;;20.50;83.20;;;;;;4972216;28;19910;-87
2023/07/24 12:03:32;;;;;;;;;;;20.40;83.80;;;;;;4977612;28;19911;-87
2023/07/24 12:05:58;;;;;;;;;;;20.40;84.20;;;;;;4978032;28;20415;-86
2023/07/24 12:08:33;;;;;;;;;;;20.20;84.40;;;;;;4954349;28;19914;-87
2023/07/24 12:10:59;;;;;;;;;;;20.20;84.10;;;;;;4973659;28;20405;-86
2023/07/24 12:13:28;;;;;;;;;;;20.20;84.60;;;;;;4973976;28;19921;-84
2023/07/24 12:15:53;;;;;;;;;;;20.00;85.30;;;;;;4976198;28;20001;-85
2023/07/24 12:18:19;;;;;;;;;;;19.80;85.90;;;;;;4975459;28;20337;-84
2023/07/24 12:20:44;;;;;;;;;;;19.50;86.50;;;;;;4971437;28;19925;-84
2023/07/24 12:23:10;;;;;;;;;;;19.20;86.30;;;;;;4971666;28;19914;-81
2023/07/24 12:25:35;;;;;;;;;;;18.80;87.70;;;;;;4970945;28;20021;-82
2023/07/24 12:28:01;;;;;;;;;;;18.50;87.80;;;;;;4973625;28;19919;-82
2023/07/24 12:30:26;;;;;;;;;;;18.20;86.50;;;;;;4969322;28;19914;-83
2023/07/24 12:32:52;;;;;;;;;;;18.00;87.30;;;;;;4969503;28;19918;-82
2023/07/24 12:35:18;;;;;;;;;;;17.80;88.60;;;;;;4968021;28;19914;-81
2023/07/24 12:37:44;;;;;;;;;;;17.90;90.00;;;;;;4954151;28;20009;-81
2023/07/24 12:40:09;;;;;;;;;;;17.90;89.70;;;;;;4972454;28;19911;-81
2023/07/24 12:42:35;;;;;;;;;;;17.80;89.60;;;;;;4969326;28;19968;-82
2023/07/24 12:45:02;;;;;;;;;;;17.90;90.30;;;;;;4972212;28;20326;-81
2023/07/24 12:47:28;;;;;;;;;;;18.10;90.50;;;;;;4973022;28;19925;-82
2023/07/24 12:49:55;;;;;;;;;;;17.90;88.80;;;;;;4974145;28;19914;-83
2023/07/24 12:52:20;;;;;;;;;;;17.80;89.30;;;;;;4961882;28;19914;-85
2023/07/24 12:54:46;;;;;;;;;;;18.00;89.20;;;;;;4972743;28;19922;-84
2023/07/24 12:57:11;;;;;;;;;;;17.90;89.20;;;;;;4971839;28;19960;-84
2023/07/24 12:59:37;;;;;;;;;;;17.90;89.40;;;;;;4970333;28;19960;-84
2023/07/24 13:02:02;;;;;;;;;;;18.10;89.10;;;;;;4960340;28;19990;-84
2023/07/24 13:04:28;;;;;;;;;;;18.20;88.70;;;;;;4967798;28;19918;-84
2023/07/24 13:06:54;;;;;;;;;;;18.30;88.20;;;;;;4967668;28;19977;-83
2023/07/24 13:09:19;;;;;;;;;;;18.40;88.00;;;;;;4975397;28;19921;-83
2023/07/24 13:11:48;;;;;;;;;;;18.40;86.40;;;;;;4966368;28;19921;-83
2023/07/24 13:14:14;;;;;;;;;;;18.40;87.00;;;;;;4949544;28;20595;-82
2023/07/24 13:16:39;;;;;;;;;;;18.70;88.00;;;;;;4967940;28;19914;-84
2023/07/24 13:19:05;;;;;;;;;;;18.80;87.60;;;;;;4969509;28;20263;-85
2023/07/24 13:21:30;;;;;;;;;;;19.00;87.40;;;;;;4969161;28;19918;-87
2023/07/24 13:23:56;;;;;;;;;;;19.10;87.60;;;;;;4961792;28;19922;-87
2023/07/24 13:26:21;;;;;;;;;;;19.00;87.50;;;;;;4971639;28;19925;-87
2023/07/24 13:28:47;;;;;;;;;;;19.00;88.10;;;;;;4974599;28;19911;-86
2023/07/24 13:31:17;;;;;;;;;;;18.90;86.70;;;;;;4975061;28;19914;-87
2023/07/24 13:33:42;;;;;;;;;;;18.90;87.70;;;;;;4970476;28;19918;-89
2023/07/24 13:36:08;;;;;;;;;;;19.10;87.50;;;;;;4983388;28;19915;-88
2023/07/24 13:38:34;;;;;;;;;;;19.10;87.70;;;;;;4981416;28;19914;-88
2023/07/24 13:40:59;;;;;;;;;;;19.30;87.40;;;;;;4979499;28;19915;-89
2023/07/24 13:43:27;;;;;;;;;;;19.40;85.80;;;;;;4973568;28;20009;-89
2023/07/24 13:48:27;;;;;;;;;;;19.70;86.20;;;;;;5086998;22;20309;-89
2023/07/24 13:50:59;;;;;;;;;;;19.80;86.30;;;;;;4995721;28;20372;-89
2023/07/24 13:53:24;;;;;;;;;;;20.00;85.60;;;;;;4990630;28;20000;-88
2023/07/24 13:55:56;;;;;;;;;;;20.00;85.00;;;;;;5010736;28;20341;-89
2023/07/24 13:58:24;;;;;;;;;;;20.00;85.60;;;;;;4990828;28;19921;-88
2023/07/24 14:00:59;;;;;;;;;;;20.10;86.60;;;;;;5002246;28;19997;-89
2023/07/24 14:03:28;;;;;;;;;;;20.20;84.90;;;;;;5001843;28;19917;-86
2023/07/24 14:05:57;;;;;;;;;;;20.30;84.00;;;;;;4975688;28;19917;-88
2023/07/24 14:08:23;;;;;;;;;;;20.30;84.00;;;;;;4973127;28;19914;-89
2023/07/24 14:10:48;;;;;;;;;;;20.40;83.30;;;;;;4974553;28;19921;-89
2023/07/24 14:13:14;;;;;;;;;;;20.40;84.10;;;;;;4974234;28;19920;-88
2023/07/24 14:15:42;;;;;;;;;;;20.40;84.30;;;;;;4990387;28;19914;-90
2023/07/24 14:18:08;;;;;;;;;;;20.50;83.20;;;;;;4990694;28;20288;-89
2023/07/24 14:23:02;;;;;;;;;;;20.70;82.60;;;;;;5050079;28;19986;-87